EDT,Max TemperatureF,Mean TemperatureF,Min TemperatureF,Max Dew PointF,MeanDew PointF,Min DewpointF,Max Humidity, Mean Humidity, Min Humidity, Max Sea Level PressureIn, Mean Sea Level PressureIn, Min Sea Level PressureIn, Max VisibilityMiles, Mean VisibilityMiles, Min VisibilityMiles, Max Wind SpeedMPH, Mean Wind SpeedMPH, Max Gust SpeedMPH,PrecipitationIn, CloudCover, Events, WindDirDegrees
2013-9-1,84,76,68,70,67,66,96,80,54,29.81,29.78,29.75,10,8,0,14,5,17,T,3,Fog,238
2013-9-2,79,70,60,70,61,52,94,75,41,29.99,29.87,29.76,10,9,5,20,9,24,0.05,3,Rain-Thunderstorm,343
2013-9-3,75,65,54,55,53,50,87,66,43,30.08,30.04,29.98,10,10,10,13,4,26,0.00,5,,336
2013-9-4,81,68,54,58,54,49,93,67,33,30.13,30.11,30.07,10,9,5,16,5,23,0.00,0,,295
2013-9-5,80,69,57,57,50,35,90,58,21,30.26,30.21,30.13,10,10,10,14,5,18,0.00,0,,22
2013-9-6,82,68,53,60,52,45,75,57,30,30.27,30.19,30.06,10,10,10,12,4,15,0.00,1,,146
2013-9-7,89,76,63,68,61,54,87,66,36,30.06,29.99,29.92,10,10,9,16,6,20,0.02,2,Rain,229
2013-9-8,78,71,63,65,63,61,94,77,58,30.05,30.00,29.95,10,8,2,16,8,22,0.00,4,,79
2013-9-9,92,79,66,71,63,54,78,63,48,30.02,29.95,29.86,10,10,10,17,10,22,0.00,2,,154
2013-9-10,97,86,74,69,65,59,82,54,26,30.03,29.99,29.91,10,10,9,22,11,31,0.00,0,,228
2013-9-11,96,84,71,70,68,63,93,68,34,30.06,30.02,29.97,10,9,2,25,9,31,0.18,2,Rain-Thunderstorm,241
2013-9-12,83,71,58,68,58,48,93,64,27,30.05,29.97,29.89,10,10,6,26,10,31,0.01,2,,312
2013-9-13,65,56,47,48,42,40,83,58,31,30.17,30.12,30.06,10,10,10,21,10,31,0.00,3,,3
2013-9-14,70,55,40,43,39,35,86,57,22,30.23,30.16,30.09,10,10,10,12,3,14,0.00,0,,182
2013-9-15,64,57,49,56,48,38,94,71,53,30.15,30.09,30.04,10,10,7,12,4,15,0.02,5,Rain,129
2013-9-16,69,60,50,54,50,43,94,76,39,30.36,30.27,30.17,10,9,6,15,7,20,0.00,5,,19
2013-9-17,71,59,46,47,45,43,86,61,32,30.39,30.30,30.19,10,10,10,13,7,20,0.00,0,,116
2013-9-18,81,69,57,64,53,44,88,60,34,30.17,30.08,29.98,10,10,6,16,8,22,0.15,3,Rain-Thunderstorm,151
2013-9-19,75,71,66,68,65,63,97,90,76,30.06,29.99,29.86,10,7,1,17,9,23,3.44,6,Rain-Thunderstorm,189
2013-9-20,75,68,60,70,65,54,91,82,73,29.88,29.83,29.77,10,9,5,18,9,24,T,6,Rain,232
2013-9-21,67,59,50,55,51,45,90,71,43,29.92,29.84,29.77,10,10,5,22,10,26,0.02,5,Rain,315
2013-9-22,65,55,44,49,44,41,86,65,38,30.08,30.02,29.94,10,10,10,16,5,21,0.00,4,,9
2013-9-23,69,55,40,46,43,38,89,66,35,30.16,30.12,30.08,10,10,10,14,6,18,0.00,0,,111
2013-9-24,70,58,46,46,44,42,86,62,36,30.13,30.05,29.97,10,10,9,14,6,23,0.00,0,,104
2013-9-25,73,60,47,50,47,44,90,65,36,30.00,29.97,29.94,10,10,6,12,3,14,0.00,0,,74
2013-9-26,78,62,45,52,46,43,93,64,26,30.12,30.07,29.99,10,9,3,12,3,15,0.00,0,,77
2013-9-27,80,64,48,51,47,42,77,55,26,30.22,30.16,30.12,10,10,10,16,7,21,0.00,0,,119
2013-9-28,81,67,53,55,52,50,89,59,30,30.15,30.07,29.97,10,10,10,20,9,26,0.00,0,,149
2013-9-29,71,61,50,61,54,48,94,75,48,30.04,30.00,29.94,10,9,3,18,8,25,0.23,6,Rain,323
2013-9-30,73,58,43,52,46,41,93,75,29,30.04,29.99,29.93,10,8,0,15,3,18,0.00,1,Fog,208